createdAt,value
2015-10-01T00:00:28.039Z,80
2015-10-01T00:01:27.978Z,79.8
2015-10-01T00:02:27.935Z,80.2
2015-10-01T00:03:27.734Z,80
2015-10-01T00:04:27.815Z,80.1
2015-10-01T00:05:27.756Z,79.4
2015-10-01T00:06:27.728Z,79.3
2015-10-01T00:07:27.651Z,79.8
2015-10-01T00:08:27.591Z,80.5
2015-10-01T00:09:27.548Z,80
2015-10-01T00:10:27.488Z,80
2015-10-01T00:11:27.428Z,80.5
2015-10-01T00:12:27.384Z,80.9
2015-10-01T00:13:27.325Z,80.4
2015-10-01T00:14:27.500Z,80.6
2015-10-01T00:15:27.220Z,80.4
2015-10-01T00:16:27.161Z,81
2015-10-01T00:17:27.101Z,79.4
2015-10-01T00:18:27.054Z,79.7
2015-10-01T00:19:26.994Z,80.2
2015-10-01T00:20:27.168Z,80.4
2015-10-01T00:21:26.874Z,79.8
2015-10-01T00:22:26.830Z,80.4
2015-10-01T00:23:26.771Z,80.4
2015-10-01T00:24:26.727Z,80
2015-10-01T00:25:26.651Z,79.8
2015-10-01T00:26:26.607Z,79.9
2015-10-01T00:27:26.563Z,79.9
2015-10-01T00:28:26.502Z,79.5
2015-10-01T00:29:26.444Z,80.2
2015-10-01T00:30:26.399Z,79.9
2015-10-01T00:31:26.355Z,79.6
2015-10-01T00:32:26.280Z,79.1
2015-10-01T00:33:26.219Z,79.5
2015-10-01T00:34:26.177Z,79.5
2015-10-01T00:35:26.100Z,79.7
2015-10-01T00:36:26.057Z,79.8
2015-10-01T00:37:25.997Z,80.5
2015-10-01T00:38:26.188Z,80.4
2015-10-01T00:39:25.893Z,80.6
2015-10-01T00:40:25.833Z,80.2
2015-10-01T00:41:25.789Z,80.1
2015-10-01T00:42:25.730Z,79.5
2015-10-01T00:43:25.684Z,79.2
2015-10-01T00:44:25.624Z,79.4
2015-10-01T00:45:25.565Z,80.2
2015-10-01T00:46:25.505Z,80.2
2015-10-01T00:47:25.462Z,80.3
2015-10-01T00:48:25.636Z,80.2
2015-10-01T00:49:25.343Z,79.9
2015-10-01T00:50:25.285Z,79.7
2015-10-01T00:51:25.226Z,79.6
2015-10-01T00:52:25.182Z,79.4
2015-10-01T00:53:25.107Z,80
2015-10-01T00:54:25.296Z,80.4
2015-10-01T00:55:25.002Z,80.7
2015-10-01T00:56:24.958Z,80.9
2015-10-01T00:57:24.898Z,80.6
2015-10-01T00:58:24.838Z,80.3
2015-10-01T00:59:24.793Z,80.5
2015-10-01T01:00:24.734Z,80.3
2015-10-01T01:01:24.690Z,80.5
2015-10-01T01:02:24.631Z,79.7
2015-10-01T01:03:24.571Z,79.6
2015-10-01T01:04:24.512Z,79.8
2015-10-01T01:05:24.482Z,79.5
2015-10-01T01:06:24.407Z,79.1
2015-10-01T01:07:24.598Z,79.4
2015-10-01T01:08:24.254Z,79.5
2015-10-01T01:09:24.240Z,80.3
2015-10-01T01:10:24.196Z,80.2
2015-10-01T01:11:24.137Z,80.2
2015-10-01T01:12:24.124Z,80.6
2015-10-01T01:13:24.017Z,80.5
2015-10-01T01:14:23.973Z,80.3
2015-10-01T01:15:23.913Z,80.2
2015-10-01T01:16:23.853Z,80
2015-10-01T01:17:23.795Z,80.8
2015-10-01T01:18:23.750Z,80.6
2015-10-01T01:19:23.690Z,80.1
2015-10-01T01:20:23.646Z,80.3
2015-10-01T01:21:23.587Z,79.6
2015-10-01T01:22:23.526Z,80
2015-10-01T01:23:23.481Z,79.6
2015-10-01T01:24:23.422Z,79.7
2015-10-01T01:25:23.362Z,80.6
2015-10-01T01:26:23.319Z,80.1
2015-10-01T01:27:23.259Z,80.2
2015-10-01T01:28:23.199Z,80.4
2015-10-01T01:29:23.155Z,80.3
2015-10-01T01:30:23.330Z,79.7
2015-10-01T01:31:23.036Z,79.7
2015-10-01T01:32:22.992Z,80.4
2015-10-01T01:33:22.916Z,80.5
2015-10-01T01:34:24.325Z,80.2
2015-10-01T01:35:22.844Z,80.2
2015-10-01T01:36:22.767Z,79.5
2015-10-01T01:37:22.739Z,79.5
2015-10-01T01:38:22.664Z,79.6
2015-10-01T01:39:22.605Z,80
2015-10-01T01:40:22.560Z,80
2015-10-01T01:41:22.500Z,80
2015-10-01T01:42:22.441Z,79.9
2015-10-01T01:43:22.381Z,80.4
2015-10-01T01:44:22.352Z,80.6
2015-10-01T01:45:22.277Z,80.6
2015-10-01T01:46:22.233Z,79.8
2015-10-01T01:47:22.173Z,79.9
2015-10-01T01:48:22.114Z,80.2
2015-10-01T01:49:22.053Z,79.9
2015-10-01T01:50:22.010Z,79.8
2015-10-01T01:51:22.184Z,80.2
2015-10-01T01:52:21.888Z,80.1
2015-10-01T01:53:21.844Z,80.3
2015-10-01T01:54:21.783Z,80.6
2015-10-01T01:55:21.567Z,80.4
2015-10-01T01:56:21.680Z,80.8
2015-10-01T01:57:21.604Z,80.6
2015-10-01T01:58:21.560Z,79.9
2015-10-01T01:59:21.516Z,79.7
2015-10-01T02:00:21.675Z,79.9
2015-10-01T02:01:21.396Z,79.8
2015-10-01T02:02:21.383Z,80
2015-10-01T02:03:21.293Z,79.9
2015-10-01T02:04:21.233Z,80.2
2015-10-01T02:05:21.173Z,80.5
2015-10-01T02:06:21.112Z,80.9
2015-10-01T02:07:21.069Z,81.2
2015-10-01T02:08:21.010Z,81.2
2015-10-01T02:09:20.965Z,81.6
2015-10-01T02:10:20.890Z,81.6
2015-10-01T02:11:20.861Z,81.6
2015-10-01T02:12:20.785Z,81.1
2015-10-01T02:13:20.976Z,80.9
2015-10-01T02:14:20.666Z,80.9
2015-10-01T02:15:20.621Z,80.6
2015-10-01T02:16:20.578Z,80.5
2015-10-01T02:17:20.518Z,80
2015-10-01T02:18:20.459Z,80.5
2015-10-01T02:19:20.399Z,80.7
2015-10-01T02:20:20.355Z,80.7
2015-10-01T02:21:20.295Z,80.6
2015-10-01T02:22:20.220Z,80.4
2015-10-01T02:23:20.175Z,81.2
2015-10-01T02:24:20.115Z,81.2
2015-10-01T02:25:20.306Z,81.4
2015-10-01T02:26:20.246Z,81.4
2015-10-01T02:27:20.187Z,81.5
2015-10-01T02:28:19.923Z,81.4
2015-10-01T02:29:19.847Z,81.4
2015-10-01T02:30:19.788Z,80.8
2015-10-01T02:31:19.728Z,80.8
2015-10-01T02:32:19.684Z,81.1
2015-10-01T02:33:19.625Z,81.3
2015-10-01T02:34:19.581Z,81.4
2015-10-01T02:35:19.520Z,81.7
2015-10-01T02:36:19.461Z,82
2015-10-01T02:37:19.417Z,81.3
2015-10-01T02:38:19.356Z,81.1
2015-10-01T02:39:19.298Z,81.1
2015-10-01T02:40:19.253Z,81.1
2015-10-01T02:41:19.178Z,81.2
2015-10-01T02:42:19.117Z,81.4
2015-10-01T02:43:19.073Z,81.6
2015-10-01T02:44:19.014Z,81.4
2015-10-01T02:45:18.970Z,80.7
2015-10-01T02:46:18.925Z,80.6
2015-10-01T02:47:18.847Z,80.4
2015-10-01T02:48:18.788Z,80.2
2015-10-01T02:49:18.744Z,80.3
2015-10-01T02:50:18.684Z,80.5
2015-10-01T02:51:18.624Z,80.3
2015-10-01T02:52:18.580Z,80.6
2015-10-01T02:53:18.536Z,80.1
2015-10-01T02:54:18.460Z,80.3
2015-10-01T02:55:18.400Z,80.7
2015-10-01T02:56:18.356Z,80.7
2015-10-01T02:57:18.296Z,80.5
2015-10-01T02:58:18.237Z,80.5
2015-10-01T02:59:18.193Z,80.6
2015-10-01T03:00:18.133Z,80.7
2015-10-01T03:01:18.074Z,80.9
2015-10-01T03:02:18.030Z,80.8
2015-10-01T03:03:17.969Z,80.7
2015-10-01T03:04:17.910Z,80.7
2015-10-01T03:05:17.849Z,81
2015-10-01T03:06:17.790Z,80.9
2015-10-01T03:07:17.746Z,81.7
2015-10-01T03:08:17.702Z,80.8
2015-10-01T03:09:17.642Z,80.5
2015-10-01T03:10:17.580Z,80.3
2015-10-01T03:11:17.508Z,80
2015-10-01T03:12:17.452Z,80
2015-10-01T03:13:17.362Z,80.2
2015-10-01T03:14:17.306Z,80.9
2015-10-01T03:15:17.234Z,80.7
2015-10-01T03:16:17.186Z,79.9
2015-10-01T03:17:17.122Z,79.8
2015-10-01T03:18:17.057Z,80.4
2015-10-01T03:19:16.994Z,80.4
2015-10-01T03:20:17.180Z,80
2015-10-01T03:21:16.870Z,80.6
2015-10-01T03:22:16.824Z,81.3
2015-10-01T03:23:16.778Z,81.1
2015-10-01T03:24:16.716Z,81.1
2015-10-01T03:25:16.655Z,80.8
2015-10-01T03:26:16.595Z,80.5
2015-10-01T03:27:16.551Z,80.9
2015-10-01T03:28:16.490Z,81.1
2015-10-01T03:29:16.429Z,81
2015-10-01T03:30:16.369Z,80.2
2015-10-01T03:31:16.325Z,80.8
2015-10-01T03:32:16.265Z,80.8
2015-10-01T03:33:16.204Z,80.4
2015-10-01T03:34:16.144Z,81.5
2015-10-01T03:35:16.099Z,81.6
2015-10-01T03:36:16.039Z,81.2
2015-10-01T03:37:15.980Z,80.5
2015-10-01T03:38:15.920Z,80.5
2015-10-01T03:39:15.861Z,81
2015-10-01T03:40:15.816Z,80.9
2015-10-01T03:41:15.772Z,80.5
2015-10-01T03:42:15.697Z,80.8
2015-10-01T03:43:15.636Z,81.5
2015-10-01T03:44:15.577Z,81.6
2015-10-01T03:45:15.549Z,81.6
2015-10-01T03:46:15.505Z,81.7
2015-10-01T03:47:15.427Z,80.8
2015-10-01T03:48:15.367Z,81.4
2015-10-01T03:49:15.322Z,80.9
2015-10-01T03:50:15.263Z,80.8
2015-10-01T03:51:15.438Z,81.4
2015-10-01T03:52:15.143Z,80.9
2015-10-01T03:53:15.083Z,80.2
2015-10-01T03:54:15.024Z,80.4
2015-10-01T03:55:14.979Z,80.8
2015-10-01T03:58:14.800Z,81.8
2015-10-01T03:59:14.756Z,82.5
2015-10-01T04:00:14.680Z,82.6
2015-10-01T04:01:14.637Z,82.6
2015-10-01T04:02:14.577Z,83
2015-10-01T04:03:14.517Z,83.1
2015-10-01T04:04:14.505Z,82.8
2015-10-01T04:05:14.429Z,82.7
2015-10-01T04:06:14.369Z,82.5
2015-10-01T04:07:14.293Z,82.4
2015-10-01T04:08:14.249Z,82.6
2015-10-01T04:09:14.190Z,82.8
2015-10-01T04:10:14.130Z,82.6
2015-10-01T04:11:14.086Z,82.6
2015-10-01T04:12:14.027Z,82.4
2015-10-01T04:13:14.216Z,82.8
2015-10-01T04:14:13.907Z,82.3
2015-10-01T04:15:13.879Z,82.4
2015-10-01T04:16:13.804Z,82
2015-10-01T04:17:13.759Z,81.5
2015-10-01T04:18:13.699Z,81.8
2015-10-01T04:19:13.640Z,81.6
2015-10-01T04:20:13.595Z,81.5
2015-10-01T04:21:13.520Z,81.6
2015-10-01T04:22:13.476Z,82.1
2015-10-01T04:23:13.415Z,82.3
2015-10-01T04:24:13.357Z,82.4
2015-10-01T04:25:13.312Z,82.4
2015-10-01T04:26:13.252Z,82.3
2015-10-01T04:27:13.193Z,82.7
2015-10-01T04:28:13.133Z,82.6
2015-10-01T04:29:13.089Z,82.5
2015-10-01T04:30:13.026Z,82.4
2015-10-01T04:31:12.826Z,82.8
2015-10-01T04:32:12.922Z,82.4
2015-10-01T04:33:12.862Z,81.5
2015-10-01T04:34:12.803Z,81.8
2015-10-01T04:35:12.759Z,81.4
2015-10-01T04:36:12.698Z,81.3
2015-10-01T04:37:12.654Z,81.1
2015-10-01T04:38:12.611Z,81.4
2015-10-01T04:41:12.494Z,81.6
2015-10-01T04:42:12.372Z,82
2015-10-01T04:43:12.328Z,82.2
2015-10-01T04:44:12.908Z,81.4
2015-10-01T04:45:12.817Z,81.4
2015-10-01T04:46:12.975Z,81.4
2015-10-01T04:47:26.228Z,81.7
2015-10-01T04:48:12.559Z,81.7
2015-10-01T04:49:13.016Z,81
2015-10-01T04:51:12.975Z,81.1
2015-10-01T04:52:26.352Z,81.2
2015-10-01T04:53:14.683Z,81.2
2015-10-01T04:54:12.139Z,81.1
2015-10-01T04:55:11.657Z,81.3
2015-10-01T04:56:26.081Z,80.8
2015-10-01T04:57:26.163Z,80.6
2015-10-01T04:58:11.930Z,80.9
2015-10-01T04:59:11.511Z,81.4
2015-10-01T05:00:11.592Z,82
2015-10-01T05:01:12.049Z,82
2015-10-01T05:02:11.286Z,81.4
2015-10-01T05:03:11.211Z,81.8
2015-10-01T05:04:11.401Z,80.9
2015-10-01T05:05:11.106Z,81.5
2015-10-01T05:06:11.047Z,81
2015-10-01T05:07:11.003Z,80.8
2015-10-01T05:08:10.927Z,80.3
2015-10-01T05:09:10.867Z,80.8
2015-10-01T05:10:10.824Z,81
2015-10-01T05:11:10.794Z,80.4
2015-10-01T05:12:10.954Z,80.5
2015-10-01T05:13:10.643Z,80.6
2015-10-01T05:14:10.600Z,80.8
2015-10-01T05:15:10.555Z,81.2
2015-10-01T05:16:10.730Z,81.1
2015-10-01T05:17:10.436Z,80.8
2015-10-01T05:18:10.391Z,81.2
2015-10-01T05:19:10.316Z,81.2
2015-10-01T05:20:10.272Z,80.6
2015-10-01T05:21:10.212Z,80.2
2015-10-01T05:22:10.153Z,80.5
2015-10-01T05:23:10.343Z,80.2
2015-10-01T05:24:10.049Z,80.8
2015-10-01T05:25:09.989Z,80.2
2015-10-01T05:26:09.926Z,80.2
2015-10-01T05:27:09.882Z,80.4
2015-10-01T05:28:09.807Z,81.4
2015-10-01T05:29:09.762Z,81.8
2015-10-01T05:30:09.704Z,81.2
2015-10-01T05:31:09.659Z,80.2
2015-10-01T05:32:09.584Z,80.6
2015-10-01T05:33:09.540Z,80.9
2015-10-01T05:34:09.464Z,81.6
2015-10-01T05:35:09.420Z,81.8
2015-10-01T05:36:09.220Z,82.5
2015-10-01T05:37:09.316Z,82.1
2015-10-01T05:38:09.240Z,82.1
2015-10-01T05:39:09.196Z,81.9
2015-10-01T05:40:09.371Z,81.4
2015-10-01T05:41:09.077Z,81.7
2015-10-01T05:42:09.033Z,81.4
2015-10-01T05:43:08.973Z,81.1
2015-10-01T05:44:08.914Z,81.5
2015-10-01T05:45:08.853Z,81.6
2015-10-01T05:46:08.809Z,82
2015-10-01T05:47:08.751Z,81.7
2015-10-01T05:48:08.690Z,81.5
2015-10-01T05:49:08.646Z,81.7
2015-10-01T05:50:08.820Z,81.4
2015-10-01T05:51:08.526Z,81.2
2015-10-01T05:52:08.467Z,81.9
2015-10-01T05:53:08.407Z,82.2
2015-10-01T05:54:08.348Z,81.7
2015-10-01T05:55:08.319Z,81.8
2015-10-01T05:56:08.254Z,81.7
2015-10-01T05:57:08.194Z,81.1
2015-10-01T05:58:08.135Z,81.1
2015-10-01T05:59:08.075Z,81.3
2015-10-01T06:00:08.031Z,81
2015-10-01T06:01:07.956Z,80.9
2015-10-01T06:02:07.912Z,80.9
2015-10-01T06:03:07.851Z,81.7
2015-10-01T06:04:07.792Z,81.7
2015-10-01T06:05:07.748Z,81.7
2015-10-01T06:06:07.687Z,82
2015-10-01T06:07:07.644Z,81.1
2015-10-01T06:08:07.584Z,80.7
2015-10-01T06:09:07.525Z,80.7
2015-10-01T06:10:07.464Z,80.9
2015-10-01T06:11:07.402Z,80.5
2015-10-01T06:12:07.358Z,80.3
2015-10-01T06:13:07.298Z,80.3
2015-10-01T06:14:07.253Z,80.6
2015-10-01T06:15:07.194Z,80.7
2015-10-01T06:16:07.119Z,80.7
2015-10-01T06:17:07.059Z,81
2015-10-01T06:18:07.014Z,81
2015-10-01T06:19:06.971Z,81.3
2015-10-01T06:20:06.911Z,80.3
2015-10-01T06:21:06.851Z,81.7
2015-10-01T06:22:06.791Z,82.2
2015-10-01T06:23:06.731Z,82.5
2015-10-01T06:24:06.688Z,82.4
2015-10-01T06:25:06.628Z,82.3
2015-10-01T06:26:06.818Z,82.4
2015-10-01T06:27:06.539Z,81.4
2015-10-01T06:28:06.480Z,81.4
2015-10-01T06:29:06.405Z,81.6
2015-10-01T06:30:06.360Z,81.8
2015-10-01T06:31:06.300Z,81.9
2015-10-01T06:32:05.506Z,82.4
2015-10-01T06:33:06.213Z,82.3
2015-10-01T06:34:06.137Z,82.9
2015-10-01T06:35:06.077Z,82.8
2015-10-01T06:36:06.033Z,82.7
2015-10-01T06:37:05.973Z,82.6
2015-10-01T06:38:05.945Z,82
2015-10-01T06:39:05.855Z,82.3
2015-10-01T06:40:05.810Z,81.7
2015-10-01T06:41:05.750Z,81.5
2015-10-01T06:42:05.722Z,81.6
2015-10-01T06:43:05.646Z,81.6
2015-10-01T06:44:05.602Z,81.4
2015-10-01T06:45:05.542Z,81.1
2015-10-01T06:46:05.482Z,80.9
2015-10-01T06:47:05.657Z,82
2015-10-01T06:48:05.379Z,81.3
2015-10-01T06:49:05.319Z,81.3
2015-10-01T06:50:05.259Z,81.5
2015-10-01T06:51:05.215Z,81.4
2015-10-01T06:52:05.171Z,81.7
2015-10-01T06:53:05.096Z,81.6
2015-10-01T06:54:05.052Z,81.4
2015-10-01T06:55:05.008Z,81.9
2015-10-01T06:56:04.932Z,81.5
2015-10-01T06:57:04.888Z,81.7
2015-10-01T06:58:04.827Z,81.9
2015-10-01T06:59:04.765Z,81.9
2015-10-01T07:00:04.721Z,82.1
2015-10-01T07:01:04.677Z,81.9
2015-10-01T07:02:04.851Z,81.6
2015-10-01T07:03:04.792Z,82
2015-10-01T07:04:04.497Z,81.9
2015-10-01T07:05:04.578Z,82.3
2015-10-01T07:06:04.393Z,82.4
2015-10-01T07:07:04.333Z,82
2015-10-01T07:08:04.290Z,81.9
2015-10-01T07:09:04.229Z,81.7
2015-10-01T07:10:04.170Z,81.7
2015-10-01T07:11:04.125Z,81.7
2015-10-01T07:12:04.082Z,81.2
2015-10-01T07:13:04.007Z,81.2
2015-10-01T07:14:03.962Z,81.7
2015-10-01T07:15:03.918Z,81.2
2015-10-01T07:16:03.858Z,81.1
2015-10-01T07:17:03.799Z,81.4
2015-10-01T07:18:03.754Z,80.5
2015-10-01T07:19:03.695Z,79.5
2015-10-01T07:20:03.650Z,79.3
2015-10-01T07:21:03.592Z,80.7
2015-10-01T07:22:03.531Z,80.1
2015-10-01T07:23:03.487Z,79.9
2015-10-01T07:24:03.443Z,80
2015-10-01T07:25:03.383Z,80.2
2015-10-01T07:26:03.323Z,79.9
2015-10-01T07:27:03.514Z,79.4
2015-10-01T07:28:02.470Z,79.8
2015-10-01T07:29:03.175Z,80.2
2015-10-01T07:30:03.116Z,79.6
2015-10-01T07:31:03.056Z,80
2015-10-01T07:32:02.840Z,79.9
2015-10-01T07:33:02.967Z,79.4
2015-10-01T07:34:02.892Z,80.2
2015-10-01T07:35:03.083Z,78.7
2015-10-01T07:36:02.789Z,79
2015-10-01T07:37:02.729Z,77.7
2015-10-01T07:38:02.684Z,75.1
2015-10-01T07:39:02.875Z,74.6
2015-10-01T07:40:02.580Z,74.5
2015-10-01T07:41:02.521Z,75.5
2015-10-01T07:42:02.711Z,74.6
2015-10-01T07:43:02.433Z,74.5
2015-10-01T07:44:02.373Z,73
2015-10-01T07:45:02.313Z,74.2
2015-10-01T07:46:02.269Z,72.7
2015-10-01T07:47:02.208Z,72.6
2015-10-01T07:48:02.399Z,73.9
2015-10-01T07:49:02.355Z,74.3
2015-10-01T07:50:02.295Z,75.6
2015-10-01T07:51:01.998Z,75.8
2015-10-01T07:52:01.954Z,76.1
2015-10-01T07:53:01.894Z,76.6
2015-10-01T07:54:01.835Z,76.2
2015-10-01T07:55:01.791Z,76.8
2015-10-01T07:56:01.730Z,76.3
2015-10-01T07:57:01.676Z,76.5
2015-10-01T07:58:01.616Z,76.2
2015-10-01T07:59:01.572Z,75.1
2015-10-01T08:00:01.528Z,72.2
2015-10-01T08:01:01.484Z,72
2015-10-01T08:02:01.409Z,73.9
2015-10-01T08:03:01.365Z,71.2
2015-10-01T08:04:01.320Z,71.8
2015-10-01T08:05:01.260Z,73
2015-10-01T08:06:01.201Z,75.4
2015-10-01T08:07:01.390Z,71
2015-10-01T08:08:01.096Z,71.8
2015-10-01T08:09:01.053Z,72.7
2015-10-01T08:10:00.993Z,73.5
2015-10-01T08:11:00.933Z,74.6
2015-10-01T08:12:00.889Z,74.6
2015-10-01T08:13:00.829Z,74.5
2015-10-01T08:14:00.801Z,75.1
2015-10-01T08:15:00.741Z,72
2015-10-01T08:16:00.681Z,73.4
2015-10-01T08:17:00.621Z,73.1
2015-10-01T08:18:00.578Z,73.6
2015-10-01T08:19:00.517Z,72.8
2015-10-01T08:20:00.709Z,71.5
2015-10-01T08:21:00.648Z,70.4
2015-10-01T08:22:00.354Z,69.9
2015-10-01T08:23:00.309Z,70.1
2015-10-01T08:24:00.265Z,70.8
2015-10-01T08:25:00.206Z,71
2015-10-01T08:26:00.145Z,70
2015-10-01T08:27:00.103Z,68.7
2015-10-01T08:28:00.042Z,70.3
2015-10-01T08:29:00.232Z,70.4
2015-10-01T08:29:59.939Z,70.4
2015-10-01T08:30:59.879Z,70.3
2015-10-01T08:31:59.850Z,71
2015-10-01T08:32:59.775Z,71.1
2015-10-01T08:33:59.730Z,71.9
2015-10-01T08:34:59.671Z,73
2015-10-01T08:35:59.627Z,72
2015-10-01T08:36:59.583Z,70.5
2015-10-01T08:37:59.508Z,70.4
2015-10-01T08:38:59.464Z,71.2
2015-10-01T08:39:59.420Z,70.3
2015-10-01T08:40:59.391Z,69.5
2015-10-01T08:41:59.330Z,70.2
2015-10-01T08:42:59.252Z,69.1
2015-10-01T08:43:59.208Z,70.3
2015-10-01T08:44:59.242Z,69.7
2015-10-01T08:45:59.105Z,70.3
2015-10-01T08:46:59.044Z,70.4
2015-10-01T08:47:59.000Z,70.7
2015-10-01T08:48:58.956Z,70.6
2015-10-01T08:49:58.913Z,70.8
2015-10-01T08:50:58.853Z,70.1
2015-10-01T08:51:58.793Z,69.4
2015-10-01T08:52:58.749Z,70.6
2015-10-01T08:53:58.688Z,69.7
2015-10-01T08:54:58.630Z,68.9
2015-10-01T08:55:58.585Z,69.3
2015-10-01T08:56:58.524Z,69.7
2015-10-01T08:57:58.481Z,70.1
2015-10-01T08:58:58.437Z,68.7
2015-10-01T08:59:58.377Z,69.4
2015-10-01T09:00:58.317Z,67.3
2015-10-01T09:01:58.273Z,66.3
2015-10-01T09:02:58.229Z,69.3
2015-10-01T09:03:58.169Z,67.8
2015-10-01T09:04:58.109Z,66.6
2015-10-01T09:05:58.081Z,66.2
2015-10-01T09:06:58.005Z,66.3
2015-10-01T09:07:57.962Z,66.9
2015-10-01T09:08:57.902Z,66.7
2015-10-01T09:09:57.857Z,67.5
2015-10-01T09:10:57.813Z,66.5
2015-10-01T09:11:57.769Z,66
2015-10-01T09:12:57.943Z,66.6
2015-10-01T09:13:57.650Z,66.6
2015-10-01T09:14:57.606Z,66
2015-10-01T09:15:57.562Z,66.4
2015-10-01T09:16:57.486Z,64.5
2015-10-01T09:17:57.443Z,65.7
2015-10-01T09:18:57.398Z,63.1
2015-10-01T09:19:57.463Z,65.3
2015-10-01T09:20:57.294Z,66.5
2015-10-01T09:21:57.406Z,66.1
2015-10-01T09:22:57.331Z,65.7
2015-10-01T09:23:57.146Z,63.2
2015-10-01T09:24:57.087Z,63
2015-10-01T09:25:57.026Z,62.2
2015-10-01T09:26:56.967Z,63.7
2015-10-01T09:27:56.922Z,64.2
2015-10-01T09:28:56.879Z,64.4
2015-10-01T09:29:56.912Z,60.7
2015-10-01T09:30:56.775Z,60.6
2015-10-01T09:31:56.731Z,61.1
2015-10-01T09:32:56.670Z,62.6
2015-10-01T09:33:56.611Z,63.6
2015-10-01T09:34:56.566Z,62.6
2015-10-01T09:35:56.522Z,63.2
2015-10-01T09:36:56.478Z,63
2015-10-01T09:37:56.622Z,61.6
2015-10-01T09:38:56.515Z,60.2
2015-10-01T09:39:56.424Z,60.4
2015-10-01T09:40:56.348Z,60.6
2015-10-01T09:41:56.192Z,61.3
2015-10-01T09:42:56.148Z,59
2015-10-01T09:43:56.338Z,60.5
2015-10-01T09:44:56.044Z,60.3
2015-10-01T09:45:56.000Z,60.2
2015-10-01T09:46:55.940Z,59.1
2015-10-01T09:47:55.896Z,59.9
2015-10-01T09:48:55.836Z,61.6
2015-10-01T09:49:55.792Z,63
2015-10-01T09:50:55.810Z,63.2
2015-10-01T09:51:55.688Z,57.8
2015-10-01T09:52:55.644Z,55.6
2015-10-01T09:53:55.584Z,57.6
2015-10-01T09:54:55.525Z,57
2015-10-01T09:55:55.480Z,56.4
2015-10-01T09:56:55.436Z,56.7
2015-10-01T09:57:55.377Z,55.5
2015-10-01T09:58:55.332Z,56
2015-10-01T09:59:55.272Z,57.2
2015-10-01T10:00:55.229Z,55.3
2015-10-01T10:01:55.168Z,56.2
2015-10-01T10:02:55.124Z,54.5
2015-10-01T10:03:55.080Z,55.4
2015-10-01T10:04:55.021Z,56.6
2015-10-01T10:05:54.977Z,55.7
2015-10-01T10:06:54.917Z,55.1
2015-10-01T10:07:54.857Z,53.9
2015-10-01T10:08:54.079Z,52.4
2015-10-01T10:09:54.753Z,52.2
2015-10-01T10:10:54.944Z,52.6
2015-10-01T10:11:54.649Z,52.2
2015-10-01T10:12:54.621Z,52.1
2015-10-01T10:13:54.561Z,52
2015-10-01T10:14:54.501Z,53
2015-10-01T10:15:54.441Z,53.7
2015-10-01T10:16:54.398Z,53.4
2015-10-01T10:17:54.337Z,51.9
2015-10-01T10:18:54.293Z,51.6
2015-10-01T10:19:54.485Z,50.1
2015-10-01T10:20:54.190Z,47.5
2015-10-01T10:21:54.130Z,46.5
2015-10-01T10:22:53.352Z,49.1
2015-10-01T10:23:54.042Z,49.3
2015-10-01T10:24:53.982Z,50.3
2015-10-01T10:25:53.938Z,48.9
2015-10-01T10:26:53.879Z,49.6
2015-10-01T10:27:53.834Z,49.9
2015-10-01T10:28:54.023Z,49.6
2015-10-01T10:29:53.729Z,51
2015-10-01T10:30:53.687Z,48.9
2015-10-01T10:31:53.626Z,49.3
2015-10-01T10:32:53.566Z,50
2015-10-01T10:33:53.772Z,49.2
2015-10-01T10:34:53.697Z,47.6
2015-10-01T10:35:53.431Z,46
2015-10-01T10:36:53.371Z,47.3
2015-10-01T10:37:53.312Z,48.5
2015-10-01T10:38:53.267Z,47.1
2015-10-01T10:39:53.223Z,46.5
2015-10-01T10:40:53.164Z,48.4
2015-10-01T10:41:53.103Z,48.3
2015-10-01T10:42:53.059Z,48.2
2015-10-01T10:43:53.015Z,48
2015-10-01T10:44:52.956Z,47.9
2015-10-01T10:45:52.911Z,48
2015-10-01T10:46:52.852Z,48.2
2015-10-01T10:47:52.808Z,48.8
2015-10-01T10:48:52.764Z,49.8
2015-10-01T10:49:52.703Z,47.9
2015-10-01T10:50:52.659Z,48.4
2015-10-01T10:51:52.833Z,47.6
2015-10-01T10:52:52.555Z,47.2
2015-10-01T10:53:52.496Z,47.1
2015-10-01T10:54:52.452Z,45.5
2015-10-01T10:55:52.236Z,45.6
2015-10-01T10:56:52.347Z,47.2
2015-10-01T10:57:52.303Z,47
2015-10-01T10:58:52.244Z,46.9
2015-10-01T10:59:52.200Z,48.8
2015-10-01T11:00:52.141Z,48.4
2015-10-01T11:01:52.096Z,49.1
2015-10-01T11:02:52.036Z,48.5
2015-10-01T11:03:51.992Z,46.6
2015-10-01T11:04:51.932Z,46.1
2015-10-01T11:05:51.888Z,47.8
2015-10-01T11:06:51.844Z,47.2
2015-10-01T11:07:51.785Z,46.3
2015-10-01T11:08:51.740Z,46.6
2015-10-01T11:09:51.681Z,46.2
2015-10-01T11:10:51.636Z,47.2
2015-10-01T11:11:51.592Z,48.2
2015-10-01T11:12:51.516Z,48.6
2015-10-01T11:13:51.488Z,48.5
2015-10-01T11:14:51.429Z,48.7
2015-10-01T11:15:51.385Z,48.2
2015-10-01T11:16:51.325Z,48.3
2015-10-01T11:17:51.515Z,48.2
2015-10-01T11:18:51.221Z,47.8
2015-10-01T11:19:51.177Z,49.5
2015-10-01T11:20:51.116Z,47.4
2015-10-01T11:21:51.073Z,48.7
2015-10-01T11:22:51.012Z,49.8
2015-10-01T11:23:50.969Z,50.3
2015-10-01T11:24:50.925Z,51.1
2015-10-01T11:25:50.864Z,52.7
2015-10-01T11:26:50.805Z,52.3
2015-10-01T11:27:50.761Z,50.2
2015-10-01T11:28:50.715Z,47.9
2015-10-01T11:29:50.670Z,48.5
2015-10-01T11:30:50.610Z,50.1
2015-10-01T11:31:50.565Z,51.4
2015-10-01T11:32:50.506Z,49.7
2015-10-01T11:33:50.462Z,47.7
2015-10-01T11:34:50.418Z,48.3
2015-10-01T11:35:50.359Z,49.6
2015-10-01T11:36:50.351Z,49
2015-10-01T11:37:50.235Z,49
2015-10-01T11:38:50.659Z,49
2015-10-01T11:39:50.147Z,49
2015-10-01T11:40:50.102Z,51.3
2015-10-01T11:41:50.042Z,50
2015-10-01T11:42:49.999Z,51
2015-10-01T11:43:49.938Z,50
2015-10-01T11:44:49.894Z,50
2015-10-01T11:45:49.835Z,50.6
2015-10-01T11:46:49.805Z,49.8
2015-10-01T11:47:49.747Z,50.3
2015-10-01T11:48:49.686Z,51
2015-10-01T11:49:49.641Z,51.3
2015-10-01T11:50:49.597Z,48.4
2015-10-01T11:51:49.537Z,49.2
2015-10-01T11:52:49.493Z,49.8
2015-10-01T11:53:49.433Z,48.9
2015-10-01T11:54:49.389Z,47.3
2015-10-01T11:55:49.377Z,47.5
2015-10-01T11:56:49.282Z,46.6
2015-10-01T11:57:49.230Z,45.2
2015-10-01T11:58:49.187Z,45.3
2015-10-01T11:59:49.158Z,45.5
2015-10-01T12:00:49.083Z,46.1
2015-10-01T12:01:49.036Z,45.8
2015-10-01T12:02:48.976Z,45.7
2015-10-01T12:03:48.933Z,44.7
2015-10-01T12:04:48.872Z,44.7
2015-10-01T12:05:48.844Z,44.4
2015-10-01T12:06:48.768Z,44.8
2015-10-01T12:07:48.724Z,45
2015-10-01T12:08:48.680Z,46.6
2015-10-01T12:09:48.605Z,45.9
2015-10-01T12:10:48.560Z,48
2015-10-01T12:11:48.516Z,45.7
2015-10-01T12:12:48.472Z,45.3
2015-10-01T12:13:48.413Z,45.5
2015-10-01T12:14:48.353Z,46.4
2015-10-01T12:15:48.307Z,45.4
2015-10-01T12:16:48.260Z,45.5
2015-10-01T12:17:48.203Z,46.4
2015-10-01T12:18:48.145Z,45.9
2015-10-01T12:19:48.073Z,44.9
2015-10-01T12:20:47.999Z,43.3
2015-10-01T12:21:47.944Z,44.8
2015-10-01T12:22:47.878Z,42.8
2015-10-01T12:23:48.064Z,43.6
2015-10-01T12:24:47.764Z,44.4
2015-10-01T12:25:47.715Z,44.7
2015-10-01T12:26:47.667Z,46.2
2015-10-01T12:27:47.606Z,46.1
2015-10-01T12:28:47.561Z,46.8
2015-10-01T12:29:47.514Z,45.9
2015-10-01T12:30:47.452Z,44.8
2015-10-01T12:31:47.392Z,44.3
2015-10-01T12:32:47.348Z,44.2
2015-10-01T12:33:47.287Z,44.1
2015-10-01T12:34:47.242Z,43.3
2015-10-01T12:35:47.197Z,44.3
2015-10-01T12:36:47.152Z,44.6
2015-10-01T12:37:47.091Z,42.7
2015-10-01T12:38:47.048Z,42.8
2015-10-01T12:39:47.003Z,44.2
2015-10-01T12:40:46.942Z,44.7
2015-10-01T12:41:46.898Z,43.9
2015-10-01T12:42:46.839Z,44.1
2015-10-01T12:43:46.811Z,44.9
2015-10-01T12:44:46.734Z,44.9
2015-10-01T12:45:45.941Z,44.4
2015-10-01T12:46:46.631Z,44.3
2015-10-01T12:47:46.603Z,44.3
2015-10-01T12:48:46.542Z,44.3
2015-10-01T12:49:46.483Z,43.8
2015-10-01T12:50:46.439Z,42.2
2015-10-01T12:51:46.395Z,43.1
2015-10-01T12:52:46.335Z,42.1
2015-10-01T12:53:46.291Z,43
2015-10-01T12:54:46.231Z,42.9
2015-10-01T12:55:46.186Z,43.5
2015-10-01T12:56:46.143Z,43.9
2015-10-01T12:57:46.082Z,43.3
2015-10-01T12:58:46.039Z,43.8
2015-10-01T12:59:45.979Z,44
2015-10-01T13:00:45.935Z,44.8
2015-10-01T13:01:45.891Z,45.3
2015-10-01T13:02:45.831Z,44.9
2015-10-01T13:03:45.786Z,43.9
2015-10-01T13:04:45.743Z,41.6
2015-10-01T13:05:45.683Z,42.4
2015-10-01T13:06:45.639Z,44.2
2015-10-01T13:07:45.594Z,43.8
2015-10-01T13:08:45.550Z,43.9
2015-10-01T13:09:45.491Z,43.1
2015-10-01T13:10:45.680Z,44.4
2015-10-01T13:11:45.399Z,45.8
2015-10-01T13:12:45.340Z,44.8
2015-10-01T13:13:45.280Z,43.2
2015-10-01T13:14:45.236Z,44.6
2015-10-01T13:15:45.191Z,44.2
2015-10-01T13:16:45.148Z,45.9
2015-10-01T13:17:45.088Z,44.7
2015-10-01T13:18:45.043Z,44.5
2015-10-01T13:19:44.984Z,44.4
2015-10-01T13:20:44.940Z,43.9
2015-10-01T13:21:44.896Z,46
2015-10-01T13:22:44.836Z,47.4
2015-10-01T13:23:44.792Z,45.5
2015-10-01T13:24:44.732Z,43.3
2015-10-01T13:25:44.703Z,43.5
2015-10-01T13:26:44.488Z,44.1
2015-10-01T13:27:44.584Z,44.7